createdAt,value
2019-03-19T00:00:38.130Z,98764.20
2019-03-19T00:02:45.793Z,98760.12
2019-03-19T00:04:54.792Z,98761.25
2019-03-19T00:07:02.496Z,98767.92
2019-03-19T00:09:10.067Z,98763.29
2019-03-19T00:11:17.714Z,98765.81
2019-03-19T00:13:25.417Z,98776.80
2019-03-19T00:15:33.112Z,98776.41
2019-03-19T00:17:40.822Z,98789.56
2019-03-19T00:19:48.619Z,98778.58
2019-03-19T00:21:56.365Z,98776.08
2019-03-19T00:24:04.352Z,98777.83
2019-03-19T00:26:12.137Z,98780.41
2019-03-19T00:28:19.845Z,98786.45
2019-03-19T00:30:27.721Z,98779.86
2019-03-19T00:32:36.208Z,98787.22
2019-03-19T00:34:43.809Z,98781.94
2019-03-19T00:36:51.496Z,98786.75
2019-03-19T00:38:59.107Z,98796.16
2019-03-19T00:41:06.825Z,98787.89
2019-03-19T00:43:14.509Z,98792.62
2019-03-19T00:45:22.431Z,98789.39
2019-03-19T00:47:30.109Z,98794.13
2019-03-19T00:49:37.757Z,98799.27
2019-03-19T00:51:45.374Z,98797.22
2019-03-19T00:53:53.334Z,98801.06
2019-03-19T00:56:01.155Z,98801.52
2019-03-19T00:58:09.069Z,98805.03
2019-03-19T01:00:21.074Z,98806.34
2019-03-19T01:02:28.655Z,98803.84
2019-03-19T01:04:37.994Z,98796.37
2019-03-19T01:06:45.596Z,98798.78
2019-03-19T01:08:53.258Z,98802.63
2019-03-19T01:11:01.092Z,98800.53
2019-03-19T01:13:08.840Z,98800.17
2019-03-19T01:15:16.822Z,98800.03
2019-03-19T01:17:24.586Z,98794.17
2019-03-19T01:19:32.233Z,98798.78
2019-03-19T01:21:40.071Z,98796.27
2019-03-19T01:23:47.971Z,98795.80
2019-03-19T01:25:56.016Z,98799.93
2019-03-19T01:28:04.039Z,98808.71
2019-03-19T01:30:17.144Z,98800.26
2019-03-19T01:32:24.793Z,98802.30
2019-03-19T01:34:33.302Z,98807.30
2019-03-19T01:36:41.021Z,98814.03
2019-03-19T01:38:48.710Z,98809.83
2019-03-19T01:40:56.351Z,98810.69
2019-03-19T01:43:03.952Z,98814.49
2019-03-19T01:45:15.464Z,98818.77
2019-03-19T01:47:23.208Z,98819.64
2019-03-19T01:49:30.916Z,98826.55
2019-03-19T01:51:38.803Z,98828.17
2019-03-19T01:53:46.464Z,98829.84
2019-03-19T01:56:01.157Z,98837.88
2019-03-19T01:58:03.834Z,98835.35
2019-03-19T02:00:19.834Z,98833.72
2019-03-19T02:02:27.436Z,98845.52
2019-03-19T02:04:35.006Z,98844.30
2019-03-19T02:06:42.584Z,98851.41
2019-03-19T02:08:50.458Z,98846.90
2019-03-19T02:10:59.324Z,98846.64
2019-03-19T02:13:07.035Z,98853.30
2019-03-19T02:15:18.376Z,98850.86
2019-03-19T02:17:26.033Z,98850.83
2019-03-19T02:19:33.707Z,98860.96
2019-03-19T02:21:41.466Z,98860.55
2019-03-19T02:23:49.207Z,98867.67
2019-03-19T02:25:56.784Z,98869.39
2019-03-19T02:28:04.994Z,98871.89
2019-03-19T02:30:17.478Z,98875.64
2019-03-19T02:32:25.106Z,98880.67
2019-03-19T02:34:33.009Z,98881.09
2019-03-19T02:36:40.662Z,98875.66
2019-03-19T02:38:48.459Z,98881.96
2019-03-19T02:40:56.351Z,98878.61
2019-03-19T02:43:05.438Z,98884.09
2019-03-19T02:45:14.957Z,98882.88
2019-03-19T02:47:23.486Z,98888.75
2019-03-19T02:49:31.115Z,98881.61
2019-03-19T02:51:38.811Z,98886.27
2019-03-19T02:53:46.689Z,98888.73
2019-03-19T02:55:54.433Z,98884.98
2019-03-19T02:58:02.081Z,98889.16
2019-03-19T03:00:22.266Z,98889.57
2019-03-19T03:02:29.935Z,98893.78
2019-03-19T03:04:37.520Z,98890.84
2019-03-19T03:06:45.130Z,98890.41
2019-03-19T03:08:52.970Z,98895.07
2019-03-19T03:11:00.548Z,98898.84
2019-03-19T03:13:08.405Z,98895.89
2019-03-19T03:15:17.624Z,98898.44
2019-03-19T03:17:25.205Z,98907.27
2019-03-19T03:19:32.884Z,98901.81
2019-03-19T03:21:40.473Z,98908.54
2019-03-19T03:23:48.202Z,98898.90
2019-03-19T03:25:56.022Z,98910.24
2019-03-19T03:28:03.911Z,98915.28
2019-03-19T03:30:22.796Z,98920.75
2019-03-19T03:32:30.507Z,98914.07
2019-03-19T03:34:39.012Z,98915.34
2019-03-19T03:36:46.839Z,98920.81
2019-03-19T03:38:54.670Z,98925.86
2019-03-19T03:41:02.747Z,98929.22
2019-03-19T03:43:10.333Z,98930.06
2019-03-19T03:45:19.746Z,98927.98
2019-03-19T03:47:27.715Z,98922.97
2019-03-19T03:49:35.294Z,98929.27
2019-03-19T03:51:43.077Z,98931.80
2019-03-19T03:53:50.665Z,98935.14
2019-03-19T03:55:58.316Z,98945.19
2019-03-19T03:58:06.238Z,98943.92
2019-03-19T04:00:19.486Z,98946.44
2019-03-19T04:02:27.084Z,98942.67
2019-03-19T04:04:34.768Z,98945.20
2019-03-19T04:06:42.487Z,98948.97
2019-03-19T04:08:50.212Z,98950.63
2019-03-19T04:10:57.920Z,98951.03
2019-03-19T04:13:05.843Z,98948.96
2019-03-19T04:15:18.904Z,98950.66
2019-03-19T04:17:26.514Z,98954.84
2019-03-19T04:19:34.267Z,98963.22
2019-03-19T04:21:41.847Z,98958.22
2019-03-19T04:23:49.837Z,98957.79
2019-03-19T04:25:57.576Z,98970.36
2019-03-19T04:28:05.656Z,98972.05
2019-03-19T04:30:18.952Z,98978.33
2019-03-19T04:32:26.684Z,98975.39
2019-03-19T04:34:34.337Z,98980.43
2019-03-19T04:36:42.963Z,98981.25
2019-03-19T04:38:50.724Z,98984.63
2019-03-19T04:40:58.352Z,98991.31
2019-03-19T04:43:05.975Z,98987.95
2019-03-19T04:45:17.704Z,98991.33
2019-03-19T04:47:25.281Z,98991.31
2019-03-19T04:49:33.721Z,98987.97
2019-03-19T04:51:41.308Z,98993.00
2019-03-19T04:53:48.900Z,98986.72
2019-03-19T04:55:56.537Z,98995.92
2019-03-19T04:58:04.197Z,98997.20
2019-03-19T05:00:19.344Z,98994.27
2019-03-19T05:02:26.953Z,99004.72
2019-03-19T05:04:34.544Z,99007.66
2019-03-19T05:06:43.271Z,99006.39
2019-03-19T05:08:51.067Z,99011.41
2019-03-19T05:10:58.681Z,99015.61
2019-03-19T05:13:06.355Z,99020.22
2019-03-19T05:15:14.217Z,99026.10
2019-03-19T05:17:22.076Z,99028.60
2019-03-19T05:19:29.697Z,99032.37
2019-03-19T05:21:37.412Z,99038.63
2019-03-19T05:23:46.368Z,99047.43
2019-03-19T05:25:54.129Z,99045.77
2019-03-19T05:28:01.763Z,99049.12
2019-03-19T05:30:21.717Z,99049.12
2019-03-19T05:32:29.382Z,99047.45
2019-03-19T05:34:37.112Z,99052.89
2019-03-19T05:36:44.896Z,99062.94
2019-03-19T05:38:52.554Z,99062.53
2019-03-19T05:41:00.262Z,99067.97
2019-03-19T05:43:09.267Z,99068.41
2019-03-19T05:45:17.734Z,99071.31
2019-03-19T05:47:25.360Z,99076.34
2019-03-19T05:49:32.955Z,99073.40
2019-03-19T05:51:40.722Z,99075.52
2019-03-19T05:53:48.335Z,99084.28
2019-03-19T05:55:56.011Z,99079.69
2019-03-19T05:58:04.933Z,99087.25
2019-03-19T06:00:21.201Z,99086.83
2019-03-19T06:02:28.878Z,99093.13
2019-03-19T06:04:36.625Z,99083.06
2019-03-19T06:06:45.412Z,99087.68
2019-03-19T06:08:53.094Z,99090.59
2019-03-19T06:11:00.767Z,99096.02
2019-03-19T06:13:08.477Z,99094.74
2019-03-19T06:15:16.986Z,99089.25
2019-03-19T06:17:24.712Z,99090.48
2019-03-19T06:19:32.500Z,99094.23
2019-03-19T06:21:40.182Z,99096.30
2019-03-19T06:23:47.853Z,99102.13
2019-03-19T06:25:55.657Z,99098.31
2019-03-19T06:28:03.532Z,99099.14
2019-03-19T06:30:19.956Z,99099.53
2019-03-19T06:32:27.759Z,99099.94
2019-03-19T06:34:36.401Z,99105.79
2019-03-19T06:36:44.139Z,99108.63
2019-03-19T06:38:51.849Z,99107.28
2019-03-19T06:40:59.591Z,99113.09
2019-03-19T06:43:07.336Z,99117.67
2019-03-19T06:45:17.209Z,99116.41
2019-03-19T06:47:24.948Z,99129.00
2019-03-19T06:49:32.742Z,99126.03
2019-03-19T06:51:40.340Z,99124.71
2019-03-19T06:53:48.006Z,99142.06
2019-03-19T06:55:55.584Z,99138.97
2019-03-19T06:58:11.070Z,99142.80
2019-03-19T07:00:21.863Z,99135.59
2019-03-19T07:02:29.433Z,99139.68
2019-03-19T07:04:37.198Z,99145.97
2019-03-19T07:06:44.868Z,99151.09
2019-03-19T07:08:53.572Z,99149.84
2019-03-19T07:11:01.162Z,99155.72
2019-03-19T07:13:08.818Z,99149.38
2019-03-19T07:15:21.806Z,99154.78
2019-03-19T07:17:29.634Z,99153.43
2019-03-19T07:19:37.270Z,99149.64
2019-03-19T07:21:44.844Z,99152.37
2019-03-19T07:23:53.604Z,99149.31
2019-03-19T07:26:01.422Z,99168.20
2019-03-19T07:28:09.331Z,99151.67
2019-03-19T07:30:24.545Z,99141.35
2019-03-19T07:32:32.183Z,99148.23
2019-03-19T07:34:39.881Z,99163.88
2019-03-19T07:36:48.208Z,99155.69
2019-03-19T07:38:55.948Z,99163.00
2019-03-19T07:41:03.585Z,99171.48
2019-03-19T07:43:12.542Z,99171.27
2019-03-19T07:45:23.142Z,99161.27
2019-03-19T07:47:30.903Z,99172.13
2019-03-19T07:49:38.579Z,99177.60
2019-03-19T07:51:46.283Z,99182.27
2019-03-19T07:53:55.145Z,99179.89
2019-03-19T07:56:02.818Z,99185.31
2019-03-19T07:58:10.552Z,99185.50
2019-03-19T08:00:19.329Z,99193.42
2019-03-19T08:02:27.069Z,99194.91
2019-03-19T08:04:34.635Z,99184.05
2019-03-19T08:06:42.375Z,99189.78
2019-03-19T08:08:51.277Z,99188.82
2019-03-19T08:11:00.387Z,99190.94
2019-03-19T08:13:08.346Z,99196.84
2019-03-19T08:15:21.226Z,99196.36
2019-03-19T08:17:29.054Z,99197.52
2019-03-19T08:19:36.842Z,99199.67
2019-03-19T08:21:44.674Z,99201.92
2019-03-19T08:23:52.325Z,99200.61
2019-03-19T08:25:59.997Z,99210.80
2019-03-19T08:28:07.675Z,99212.27
2019-03-19T08:30:24.769Z,99208.30
2019-03-19T08:32:32.823Z,99205.97
2019-03-19T08:34:41.489Z,99215.77
2019-03-19T08:36:49.952Z,99216.33
2019-03-19T08:38:57.613Z,99224.06
2019-03-19T08:41:05.385Z,99218.53
2019-03-19T08:43:13.017Z,99221.41
2019-03-19T08:45:28.475Z,99218.99
2019-03-19T08:47:38.364Z,99223.75
2019-03-19T08:49:45.394Z,99237.31
2019-03-19T08:51:54.014Z,99240.97
2019-03-19T08:54:01.712Z,99224.02
2019-03-19T08:56:10.533Z,99243.35
2019-03-19T08:58:18.283Z,99240.96
2019-03-19T09:00:28.333Z,99244.67
2019-03-19T09:02:36.030Z,99251.11
2019-03-19T09:04:43.731Z,99249.61
2019-03-19T09:06:51.318Z,99246.13
2019-03-19T09:08:58.877Z,99248.36
2019-03-19T09:11:07.757Z,99240.17
2019-03-19T09:13:15.329Z,99254.41
2019-03-19T09:15:28.401Z,99255.39
2019-03-19T09:17:36.208Z,99271.24
2019-03-19T09:19:44.888Z,99264.75
2019-03-19T09:21:52.625Z,99267.36
2019-03-19T09:24:00.293Z,99269.98
2019-03-19T09:26:07.882Z,99273.09
2019-03-19T09:28:15.536Z,99273.17
2019-03-19T09:30:26.896Z,99278.86
2019-03-19T09:32:34.720Z,99280.98
2019-03-19T09:34:42.383Z,99283.50
2019-03-19T09:36:57.236Z,99287.09
2019-03-19T09:38:59.760Z,99286.58
2019-03-19T09:41:07.598Z,99279.41
2019-03-19T09:43:15.273Z,99275.81
2019-03-19T09:45:22.873Z,99281.22
2019-03-19T09:47:30.606Z,99289.36
2019-03-19T09:49:38.276Z,99281.31
2019-03-19T09:51:45.968Z,99276.89
2019-03-19T09:53:53.806Z,99279.76
2019-03-19T09:56:01.397Z,99279.61
2019-03-19T09:58:08.998Z,99263.82
2019-03-19T10:00:21.521Z,99274.10
2019-03-19T10:02:29.092Z,99265.83
2019-03-19T10:04:36.765Z,99270.72
2019-03-19T10:06:44.430Z,99275.25
2019-03-19T10:08:52.166Z,99270.94
2019-03-19T10:10:59.833Z,99274.58
2019-03-19T10:13:07.501Z,99264.34
2019-03-19T10:15:17.135Z,99266.64
2019-03-19T10:17:24.880Z,99274.77
2019-03-19T10:19:32.616Z,99268.47
2019-03-19T10:21:40.299Z,99265.68
2019-03-19T10:23:47.895Z,99269.07
2019-03-19T10:25:56.632Z,99273.27
2019-03-19T10:28:04.374Z,99277.46
2019-03-19T10:30:20.521Z,99280.23
2019-03-19T10:32:28.089Z,99289.27
2019-03-19T10:34:35.654Z,99279.07
2019-03-19T10:36:43.312Z,99292.41
2019-03-19T10:38:51.113Z,99290.94
2019-03-19T10:40:58.674Z,99282.36
2019-03-19T10:43:06.504Z,99272.91
2019-03-19T10:45:16.578Z,99287.28
2019-03-19T10:47:24.197Z,99272.13
2019-03-19T10:49:31.864Z,99273.95
2019-03-19T10:51:39.608Z,99280.85
2019-03-19T10:53:48.247Z,99275.92
2019-03-19T10:55:55.986Z,99280.92
2019-03-19T10:58:10.949Z,99274.39
2019-03-19T11:00:22.030Z,99268.08
2019-03-19T11:02:29.735Z,99268.83
2019-03-19T11:04:37.401Z,99261.09
2019-03-19T11:06:44.986Z,99251.52
2019-03-19T11:08:52.682Z,99254.93
2019-03-19T11:11:00.354Z,99249.70
2019-03-19T11:13:07.997Z,99246.59
2019-03-19T11:15:20.738Z,99257.62
2019-03-19T11:17:28.563Z,99258.58
2019-03-19T11:19:36.263Z,99263.60
2019-03-19T11:21:44.042Z,99267.38
2019-03-19T11:23:51.577Z,99262.95
2019-03-19T11:25:59.209Z,99261.37
2019-03-19T11:28:07.073Z,99269.69
2019-03-19T11:30:31.613Z,99258.36
2019-03-19T11:32:39.518Z,99259.82
2019-03-19T11:34:47.281Z,99257.33
2019-03-19T11:36:58.114Z,99251.21
2019-03-19T11:39:07.672Z,99245.22
2019-03-19T11:41:16.686Z,99244.07
2019-03-19T11:43:24.288Z,99243.47
2019-03-19T11:45:31.925Z,99243.20
2019-03-19T11:47:39.620Z,99244.17
2019-03-19T11:49:47.258Z,99248.89
2019-03-19T11:51:54.922Z,99250.62
2019-03-19T11:54:02.528Z,99245.03
2019-03-19T11:56:10.161Z,99262.58
2019-03-19T11:58:18.832Z,99270.26
2019-03-19T12:00:33.024Z,99262.09
2019-03-19T12:02:40.699Z,99262.63
2019-03-19T12:04:48.338Z,99265.77
2019-03-19T12:06:56.101Z,99271.99
2019-03-19T12:09:04.309Z,99276.11
2019-03-19T12:11:11.940Z,99272.80
2019-03-19T12:13:19.603Z,99265.71
2019-03-19T12:15:27.489Z,99271.06
2019-03-19T12:17:35.150Z,99272.59
2019-03-19T12:19:42.930Z,99269.45
2019-03-19T12:21:50.593Z,99280.62
2019-03-19T12:23:58.331Z,99277.54
2019-03-19T12:26:06.277Z,99279.62
2019-03-19T12:28:13.981Z,99282.24
2019-03-19T12:30:26.474Z,99277.60
2019-03-19T12:32:35.149Z,99280.23
2019-03-19T12:34:42.831Z,99274.88
2019-03-19T12:36:50.495Z,99279.66
2019-03-19T12:38:58.157Z,99279.16
2019-03-19T12:41:06.197Z,99276.66
2019-03-19T12:43:13.751Z,99276.34
2019-03-19T12:45:22.853Z,99276.54
2019-03-19T12:47:30.420Z,99282.27
2019-03-19T12:49:38.953Z,99278.77
2019-03-19T12:51:46.742Z,99281.50
2019-03-19T12:53:54.672Z,99276.34
2019-03-19T12:56:02.349Z,99276.95
2019-03-19T12:58:10.025Z,99274.38
2019-03-19T13:00:34.052Z,99293.15
2019-03-19T13:02:38.639Z,99289.88
2019-03-19T13:04:46.347Z,99293.47
2019-03-19T13:06:53.914Z,99303.13
2019-03-19T13:09:01.846Z,99308.60
2019-03-19T13:11:09.939Z,99303.80
2019-03-19T13:13:17.496Z,99307.44
2019-03-19T13:15:25.258Z,99315.65
2019-03-19T13:17:32.894Z,99310.58
2019-03-19T13:19:40.491Z,99307.89
2019-03-19T13:21:48.147Z,99308.70
2019-03-19T13:23:57.209Z,99304.91
2019-03-19T13:26:04.888Z,99305.61
2019-03-19T13:28:12.562Z,99302.95
2019-03-19T13:30:30.317Z,99308.13
2019-03-19T13:32:38.055Z,99303.33
2019-03-19T13:34:45.623Z,99298.21
2019-03-19T13:36:54.428Z,99301.61
2019-03-19T13:39:02.091Z,99298.42
2019-03-19T13:41:11.147Z,99302.83
2019-03-19T13:43:19.023Z,99301.48
2019-03-19T13:45:26.702Z,99301.13
2019-03-19T13:47:34.427Z,99300.14
2019-03-19T13:49:43.382Z,99295.29
2019-03-19T13:51:52.292Z,99300.17
2019-03-19T13:54:00.072Z,99294.08
2019-03-19T13:56:07.834Z,99299.63
2019-03-19T13:58:16.646Z,99292.97
2019-03-19T14:00:24.376Z,99310.72
2019-03-19T14:02:32.076Z,99300.68
2019-03-19T14:04:40.146Z,99297.84
2019-03-19T14:06:47.882Z,99304.03
2019-03-19T14:08:55.639Z,99302.38
2019-03-19T14:11:03.319Z,99315.03
2019-03-19T14:13:11.049Z,99312.51
2019-03-19T14:15:27.008Z,99312.21
2019-03-19T14:17:34.672Z,99316.73
2019-03-19T14:19:42.343Z,99321.16
2019-03-19T14:21:50.023Z,99326.06
2019-03-19T14:23:57.692Z,99326.12
2019-03-19T14:26:05.426Z,99329.02
2019-03-19T14:28:13.195Z,99338.00
2019-03-19T14:30:23.413Z,99344.63
2019-03-19T14:32:31.048Z,99341.90
2019-03-19T14:34:38.707Z,99342.01
2019-03-19T14:36:46.367Z,99345.75
2019-03-19T14:38:54.047Z,99348.39
2019-03-19T14:41:01.881Z,99353.95
2019-03-19T14:43:10.502Z,99354.74
2019-03-19T14:45:18.962Z,99355.59
2019-03-19T14:47:28.255Z,99354.32
2019-03-19T14:49:46.036Z,99353.50
2019-03-19T14:51:46.263Z,99361.97
2019-03-19T14:53:54.130Z,99365.57
2019-03-19T14:56:01.863Z,99365.97
2019-03-19T14:58:09.607Z,99366.30
2019-03-19T15:00:23.888Z,99376.15
2019-03-19T15:02:31.534Z,99375.78
2019-03-19T15:04:39.335Z,99368.75
2019-03-19T15:06:46.927Z,99373.91
2019-03-19T15:08:54.485Z,99375.30
2019-03-19T15:11:02.136Z,99369.77
2019-03-19T15:13:09.736Z,99379.11
2019-03-19T15:15:21.319Z,99384.64
2019-03-19T15:17:28.977Z,99386.75
2019-03-19T15:19:36.568Z,99388.80
2019-03-19T15:21:44.204Z,99381.37
2019-03-19T15:23:51.873Z,99391.06
2019-03-19T15:25:59.544Z,99390.02
2019-03-19T15:28:07.416Z,99391.28
2019-03-19T15:30:20.458Z,99397.54
2019-03-19T15:32:28.057Z,99397.53
2019-03-19T15:34:35.901Z,99405.52
2019-03-19T15:36:43.577Z,99409.26
2019-03-19T15:38:51.234Z,99408.77
2019-03-19T15:40:58.906Z,99414.80
2019-03-19T15:43:06.569Z,99417.42
2019-03-19T15:45:30.462Z,99429.90
2019-03-19T15:47:38.120Z,99428.05
2019-03-19T15:49:45.840Z,99425.39
2019-03-19T15:51:53.706Z,99426.34
2019-03-19T15:54:01.376Z,99431.82
2019-03-19T15:56:09.051Z,99431.39
2019-03-19T15:58:16.924Z,99439.17
2019-03-19T16:00:24.569Z,99434.27
2019-03-19T16:02:32.309Z,99437.68
2019-03-19T16:04:40.123Z,99436.61
2019-03-19T16:06:47.829Z,99436.02
2019-03-19T16:08:55.564Z,99441.27
2019-03-19T16:11:03.207Z,99445.67
2019-03-19T16:13:10.855Z,99453.68
2019-03-19T16:15:23.305Z,99452.48
2019-03-19T16:17:32.211Z,99450.38
2019-03-19T16:19:39.945Z,99457.17
2019-03-19T16:21:47.773Z,99451.94
2019-03-19T16:23:56.541Z,99457.48
2019-03-19T16:26:04.276Z,99456.91
2019-03-19T16:28:12.013Z,99460.81
2019-03-19T16:30:22.568Z,99464.20
2019-03-19T16:32:30.185Z,99474.84
2019-03-19T16:34:37.939Z,99467.87
2019-03-19T16:36:45.608Z,99471.57
2019-03-19T16:38:54.359Z,99475.80
2019-03-19T16:41:02.036Z,99484.78
2019-03-19T16:43:09.695Z,99481.19
2019-03-19T16:45:18.860Z,99489.27
2019-03-19T16:47:26.666Z,99492.48
2019-03-19T16:49:34.398Z,99490.09
2019-03-19T16:51:42.149Z,99495.11
2019-03-19T16:53:49.707Z,99497.58
2019-03-19T16:55:57.745Z,99500.44
2019-03-19T16:58:05.554Z,99498.52
2019-03-19T17:00:25.421Z,99504.78
2019-03-19T17:02:34.325Z,99510.28
2019-03-19T17:04:42.072Z,99513.78
2019-03-19T17:06:49.992Z,99516.65
2019-03-19T17:08:57.701Z,99525.27
2019-03-19T17:11:05.618Z,99526.84
2019-03-19T17:13:13.363Z,99531.52
2019-03-19T17:15:21.254Z,99529.90
2019-03-19T17:17:28.934Z,99531.97
2019-03-19T17:19:36.610Z,99529.73
2019-03-19T17:21:44.277Z,99538.28
2019-03-19T17:23:52.025Z,99538.03
2019-03-19T17:25:59.780Z,99541.22
2019-03-19T17:28:07.555Z,99545.38
2019-03-19T17:30:32.704Z,99549.30
2019-03-19T17:32:40.421Z,99551.77
2019-03-19T17:34:48.101Z,99548.59
2019-03-19T17:36:55.840Z,99553.50
2019-03-19T17:39:03.496Z,99551.81
2019-03-19T17:41:11.245Z,99556.86
2019-03-19T17:43:18.991Z,99558.66
2019-03-19T17:45:26.918Z,99566.34
2019-03-19T17:47:34.794Z,99567.99
2019-03-19T17:49:42.446Z,99565.80
2019-03-19T17:51:50.099Z,99565.97
2019-03-19T17:53:57.802Z,99567.66
2019-03-19T17:56:23.694Z,99571.06
2019-03-19T17:58:31.542Z,99575.38
2019-03-19T18:00:53.123Z,99578.05
2019-03-19T18:03:00.803Z,99573.34
2019-03-19T18:05:11.181Z,99575.82
2019-03-19T18:07:18.905Z,99581.70
2019-03-19T18:09:26.486Z,99584.67
2019-03-19T18:11:34.163Z,99588.45
2019-03-19T18:13:41.762Z,99592.32
2019-03-19T18:15:49.588Z,99596.52
2019-03-19T18:17:57.328Z,99597.72
2019-03-19T18:20:09.713Z,99603.66
2019-03-19T18:22:17.480Z,99601.53
2019-03-19T18:24:26.124Z,99598.66
2019-03-19T18:26:33.786Z,99606.73
2019-03-19T18:28:41.464Z,99602.44
2019-03-19T18:30:49.044Z,99620.26
2019-03-19T18:32:56.873Z,99617.67
2019-03-19T18:35:05.557Z,99619.44
2019-03-19T18:37:13.266Z,99623.20
2019-03-19T18:39:22.213Z,99620.13
2019-03-19T18:41:29.791Z,99620.21
2019-03-19T18:43:37.550Z,99622.30
2019-03-19T18:45:45.994Z,99620.67
2019-03-19T18:47:53.567Z,99620.61
2019-03-19T18:50:01.325Z,99619.66
2019-03-19T18:52:09.141Z,99621.35
2019-03-19T18:54:16.895Z,99625.09
2019-03-19T18:56:24.452Z,99628.10
2019-03-19T18:58:32.240Z,99633.16
2019-03-19T19:00:40.074Z,99635.45
2019-03-19T19:02:50.016Z,99628.64
2019-03-19T19:04:57.425Z,99634.87
2019-03-19T19:07:05.111Z,99629.34
2019-03-19T19:09:13.759Z,99635.34
2019-03-19T19:11:21.484Z,99641.38
2019-03-19T19:13:29.160Z,99642.59
2019-03-19T19:15:36.938Z,99643.01
2019-03-19T19:17:44.764Z,99646.04
2019-03-19T19:19:52.445Z,99652.88
2019-03-19T19:22:01.326Z,99659.75
2019-03-19T19:24:09.084Z,99652.98
2019-03-19T19:26:16.873Z,99654.34
2019-03-19T19:28:24.526Z,99656.34
2019-03-19T19:30:33.374Z,99652.17
2019-03-19T19:32:41.023Z,99649.06
2019-03-19T19:34:48.768Z,99652.14
2019-03-19T19:36:56.476Z,99654.64
2019-03-19T19:39:08.127Z,99657.17
2019-03-19T19:41:15.914Z,99658.95
2019-03-19T19:43:23.812Z,99661.91
2019-03-19T19:45:31.393Z,99656.50
2019-03-19T19:47:39.267Z,99661.98
2019-03-19T19:49:46.917Z,99657.34
2019-03-19T19:51:54.738Z,99655.70
2019-03-19T19:54:02.462Z,99658.99
2019-03-19T19:56:10.193Z,99662.84
2019-03-19T19:58:19.522Z,99669.56
2019-03-19T20:00:27.102Z,99663.30
2019-03-19T20:02:34.709Z,99664.93
2019-03-19T20:04:42.503Z,99667.91
2019-03-19T20:06:50.079Z,99672.19
2019-03-19T20:08:57.760Z,99671.28
2019-03-19T20:11:05.487Z,99669.92
2019-03-19T20:13:13.250Z,99672.09
2019-03-19T20:15:20.931Z,99673.36
2019-03-19T20:17:28.613Z,99672.93
2019-03-19T20:19:36.300Z,99673.00
2019-03-19T20:21:44.123Z,99677.62
2019-03-19T20:23:52.845Z,99679.34
2019-03-19T20:26:00.417Z,99676.80
2019-03-19T20:28:08.431Z,99679.31
2019-03-19T20:30:27.253Z,99679.31
2019-03-19T20:32:34.931Z,99686.56
2019-03-19T20:34:42.649Z,99687.03
2019-03-19T20:36:50.547Z,99688.27
2019-03-19T20:38:58.234Z,99686.47
2019-03-19T20:41:07.102Z,99684.62
2019-03-19T20:43:14.751Z,99685.92
2019-03-19T20:45:25.400Z,99687.23
2019-03-19T20:47:33.081Z,99684.68
2019-03-19T20:49:47.626Z,99682.47
2019-03-19T20:51:52.485Z,99687.63
2019-03-19T20:54:00.262Z,99686.76
2019-03-19T20:56:08.017Z,99686.63
2019-03-19T20:58:15.754Z,99689.62
2019-03-19T21:00:23.448Z,99691.36
2019-03-19T21:02:31.267Z,99691.41
2019-03-19T21:04:38.952Z,99692.95
2019-03-19T21:06:46.735Z,99695.84
2019-03-19T21:08:54.368Z,99699.19
2019-03-19T21:11:02.021Z,99706.39
2019-03-19T21:13:09.736Z,99706.02
2019-03-19T21:15:26.387Z,99703.58
2019-03-19T21:17:34.045Z,99708.27
2019-03-19T21:19:41.773Z,99709.53
2019-03-19T21:21:49.424Z,99712.52
2019-03-19T21:23:57.167Z,99705.41
2019-03-19T21:26:04.852Z,99711.73
2019-03-19T21:28:14.311Z,99714.67
2019-03-19T21:30:23.368Z,99714.38
2019-03-19T21:32:32.321Z,99711.42
2019-03-19T21:34:40.198Z,99716.00
2019-03-19T21:36:47.926Z,99717.27
2019-03-19T21:38:55.533Z,99716.53
2019-03-19T21:41:03.296Z,99726.32
2019-03-19T21:43:11.043Z,99723.31
2019-03-19T21:45:20.785Z,99726.80
2019-03-19T21:47:28.399Z,99732.75
2019-03-19T21:49:36.150Z,99720.93
2019-03-19T21:51:43.831Z,99731.15
2019-03-19T21:53:51.583Z,99726.15
2019-03-19T21:55:59.272Z,99733.75
2019-03-19T21:58:08.018Z,99730.40
2019-03-19T22:00:23.381Z,99733.84
2019-03-19T22:02:35.080Z,99728.42
2019-03-19T22:04:42.841Z,99733.48
2019-03-19T22:06:50.508Z,99726.77
2019-03-19T22:08:58.274Z,99725.88
2019-03-19T22:11:07.007Z,99738.14
2019-03-19T22:13:14.764Z,99740.73
2019-03-19T22:15:27.134Z,99745.77
2019-03-19T22:17:34.743Z,99750.34
2019-03-19T22:19:42.521Z,99746.52
2019-03-19T22:21:50.154Z,99746.53
2019-03-19T22:23:57.801Z,99744.85
2019-03-19T22:26:05.506Z,99745.30
2019-03-19T22:28:13.192Z,99742.37
2019-03-19T22:30:22.162Z,99742.43
2019-03-19T22:32:29.834Z,99743.72
2019-03-19T22:34:37.514Z,99753.45
2019-03-19T22:36:45.140Z,99750.50
2019-03-19T22:38:52.835Z,99758.52
2019-03-19T22:41:00.579Z,99755.99
2019-03-19T22:43:09.945Z,99762.72
2019-03-19T22:45:18.780Z,99761.02
2019-03-19T22:47:26.359Z,99762.73
2019-03-19T22:49:34.069Z,99753.86
2019-03-19T22:51:41.754Z,99752.60
2019-03-19T22:53:49.950Z,99757.23
2019-03-19T22:55:57.665Z,99761.45
2019-03-19T22:58:05.488Z,99759.77
2019-03-19T23:00:37.023Z,99763.98
2019-03-19T23:02:46.333Z,99768.62
2019-03-19T23:04:53.919Z,99770.73
2019-03-19T23:07:01.608Z,99779.98
2019-03-19T23:09:09.515Z,99778.72
2019-03-19T23:11:17.201Z,99784.21
2019-03-19T23:13:24.835Z,99778.31
2019-03-19T23:15:32.780Z,99786.73
2019-03-19T23:17:40.598Z,99783.77
2019-03-19T23:19:48.285Z,99784.64
2019-03-19T23:21:56.039Z,99792.19
2019-03-19T23:24:03.696Z,99791.34
2019-03-19T23:26:12.466Z,99799.38
2019-03-19T23:28:20.164Z,99802.73
2019-03-19T23:30:27.925Z,99790.92
2019-03-19T23:32:35.755Z,99798.09
2019-03-19T23:34:43.539Z,99801.45
2019-03-19T23:36:51.158Z,99809.45
2019-03-19T23:38:58.884Z,99804.40
2019-03-19T23:41:06.658Z,99809.42
2019-03-19T23:43:14.389Z,99811.95
2019-03-19T23:45:22.135Z,99814.45
2019-03-19T23:47:29.948Z,99814.45
2019-03-19T23:49:37.632Z,99813.98
2019-03-19T23:51:45.318Z,99822.80
2019-03-19T23:53:54.152Z,99825.30
2019-03-19T23:56:01.815Z,99826.09
2019-03-19T23:58:09.402Z,99826.50
